createdAt,value
2022-08-29T00:04:36.120Z,6.18
2022-08-29T00:09:27.841Z,7.13
2022-08-29T00:14:23.289Z,4.35
2022-08-29T00:19:15.445Z,6.55
2022-08-29T00:24:07.445Z,3.70
2022-08-29T00:28:59.057Z,4.78
2022-08-29T00:33:52.307Z,7.30
2022-08-29T00:38:44.170Z,5.63
2022-08-29T00:43:37.398Z,5.25
2022-08-29T00:48:29.653Z,8.52
2022-08-29T00:53:30.317Z,5.93
2022-08-29T00:58:27.819Z,5.47
2022-08-29T01:03:20.010Z,4.75
2022-08-29T01:08:12.244Z,10.77
2022-08-29T01:13:06.177Z,6.30
2022-08-29T01:18:00.275Z,5.90
2022-08-29T01:23:19.089Z,4.05
2022-08-29T01:28:18.951Z,4.70
2022-08-29T01:33:10.707Z,5.53
2022-08-29T01:38:03.681Z,3.15
2022-08-29T01:42:57.618Z,4.00
2022-08-29T01:47:49.202Z,4.45
2022-08-29T01:52:42.795Z,3.40
2022-08-29T01:57:37.818Z,2.90
2022-08-29T02:02:30.206Z,1.98
2022-08-29T02:07:25.444Z,3.20
2022-08-29T02:12:17.592Z,1.63
2022-08-29T02:17:10.146Z,4.00
2022-08-29T02:22:02.692Z,1.92
2022-08-29T02:26:56.057Z,1.90
2022-08-29T02:31:47.813Z,2.40
2022-08-29T02:36:41.415Z,2.53
2022-08-29T02:41:33.391Z,2.10
2022-08-29T02:46:25.971Z,4.03
2022-08-29T02:51:24.183Z,1.50
2022-08-29T02:56:16.062Z,1.90
2022-08-29T03:01:08.051Z,3.38
2022-08-29T03:05:59.725Z,3.42
2022-08-29T03:10:51.399Z,1.67
2022-08-29T03:15:43.397Z,2.67
2022-08-29T03:20:37.063Z,1.67
2022-08-29T03:25:28.772Z,2.67
2022-08-29T03:30:21.209Z,5.63
2022-08-29T03:35:18.081Z,3.78
2022-08-29T03:40:10.678Z,3.00
2022-08-29T03:45:06.001Z,2.60
2022-08-29T03:49:57.610Z,2.30
2022-08-29T03:54:49.286Z,2.80
2022-08-29T03:59:40.888Z,1.30
2022-08-29T04:04:51.181Z,2.20
2022-08-29T04:09:42.840Z,3.35
2022-08-29T04:14:35.400Z,2.25
2022-08-29T04:19:27.106Z,4.88
2022-08-29T04:24:19.730Z,3.40
2022-08-29T04:29:12.926Z,1.40
2022-08-29T04:34:06.556Z,1.92
2022-08-29T04:38:58.226Z,1.80
2022-08-29T04:43:49.825Z,1.15
2022-08-29T04:48:41.426Z,2.10
2022-08-29T04:53:33.029Z,3.50
2022-08-29T04:58:25.393Z,3.83
2022-08-29T05:03:18.224Z,2.10
2022-08-29T05:08:09.922Z,1.45
2022-08-29T05:13:01.579Z,2.38
2022-08-29T05:17:54.379Z,5.40
2022-08-29T05:22:45.999Z,0.93
2022-08-29T05:27:40.160Z,1.92
2022-08-29T05:32:31.998Z,1.55
2022-08-29T05:37:23.818Z,1.90
2022-08-29T05:42:17.258Z,3.10
2022-08-29T05:47:12.146Z,2.55
2022-08-29T05:52:05.086Z,1.85
2022-08-29T05:56:57.137Z,2.25
2022-08-29T06:01:48.818Z,2.35
2022-08-29T06:06:41.298Z,3.10
2022-08-29T06:11:33.445Z,2.20
2022-08-29T06:16:28.752Z,3.10
2022-08-29T06:21:20.678Z,2.83
2022-08-29T06:26:13.398Z,4.28
2022-08-29T06:31:09.662Z,5.22
2022-08-29T06:36:01.608Z,2.38
2022-08-29T06:40:53.232Z,3.75
2022-08-29T06:45:44.881Z,3.72
2022-08-29T06:50:43.619Z,1.92
2022-08-29T06:55:38.047Z,3.63
2022-08-29T07:00:31.161Z,4.57
2022-08-29T07:05:23.960Z,4.20
2022-08-29T07:10:21.595Z,2.67
2022-08-29T07:15:14.277Z,4.75
2022-08-29T07:20:07.044Z,3.28
2022-08-29T07:24:58.713Z,3.42
2022-08-29T07:29:50.892Z,3.83
2022-08-29T07:34:42.555Z,3.13
2022-08-29T07:39:34.212Z,4.05
2022-08-29T07:44:26.533Z,6.53
2022-08-29T07:49:22.458Z,3.42
2022-08-29T07:54:17.033Z,5.05
2022-08-29T07:59:09.270Z,5.90
2022-08-29T08:04:01.039Z,6.50
2022-08-29T08:08:52.849Z,3.08
2022-08-29T08:13:44.713Z,6.25
2022-08-29T08:18:38.121Z,3.40
2022-08-29T08:23:29.869Z,6.00
2022-08-29T08:28:21.657Z,4.85
2022-08-29T08:33:13.316Z,3.13
2022-08-29T08:38:06.906Z,3.22
2022-08-29T08:43:02.752Z,3.38
2022-08-29T08:48:05.691Z,2.58
2022-08-29T08:53:04.378Z,2.45
2022-08-29T08:58:18.297Z,2.38
2022-08-29T09:03:25.876Z,3.85
2022-08-29T09:08:38.115Z,1.20
2022-08-29T09:14:06.192Z,2.55
2022-08-29T09:19:10.924Z,3.38
2022-08-29T09:24:08.957Z,2.45
2022-08-29T09:29:00.620Z,2.55
2022-08-29T09:33:56.915Z,1.75
2022-08-29T09:38:48.553Z,1.95
2022-08-29T09:43:40.172Z,0.88
2022-08-29T09:48:35.473Z,1.73
2022-08-29T09:53:27.637Z,1.38
2022-08-29T09:58:20.145Z,1.20
2022-08-29T10:03:21.789Z,1.98
2022-08-29T10:08:35.336Z,1.77
2022-08-29T10:13:35.389Z,0.93
2022-08-29T10:18:44.357Z,3.75
2022-08-29T10:24:01.397Z,1.15
2022-08-29T10:29:12.243Z,0.60
2022-08-29T10:34:21.984Z,1.38
2022-08-29T10:39:16.123Z,1.35
2022-08-29T10:44:39.496Z,1.13
2022-08-29T10:49:34.084Z,1.13
2022-08-29T10:55:11.110Z,1.35
2022-08-29T11:00:09.306Z,3.08
2022-08-29T11:05:11.317Z,3.40
2022-08-29T11:10:23.500Z,1.80
2022-08-29T11:15:31.554Z,2.50
2022-08-29T11:20:30.670Z,2.75
2022-08-29T11:25:22.717Z,2.35
2022-08-29T11:30:29.499Z,1.27
2022-08-29T11:35:45.717Z,1.67
2022-08-29T11:46:12.774Z,0.98
2022-08-29T11:51:40.797Z,0.80
2022-08-29T11:56:32.550Z,1.02
2022-08-29T12:01:36.089Z,1.70
2022-08-29T12:06:37.985Z,2.75
2022-08-29T12:12:12.734Z,1.67
2022-08-29T12:17:08.433Z,1.60
2022-08-29T12:22:01.172Z,2.90
2022-08-29T12:26:53.199Z,3.05
2022-08-29T12:32:18.203Z,3.15
2022-08-29T12:37:05.831Z,1.60
2022-08-29T12:42:25.134Z,4.13
2022-08-29T12:47:27.127Z,1.75
2022-08-29T12:52:26.939Z,2.35
2022-08-29T12:57:29.737Z,3.08
2022-08-29T13:02:24.486Z,1.75
2022-08-29T13:07:19.162Z,1.35
2022-08-29T13:12:25.569Z,3.88
2022-08-29T13:17:20.886Z,2.35
2022-08-29T13:22:14.428Z,0.93
2022-08-29T13:27:10.219Z,1.10
2022-08-29T13:32:14.139Z,0.93
2022-08-29T13:37:16.302Z,0.82
2022-08-29T13:42:21.888Z,1.15
2022-08-29T13:47:22.578Z,1.42
2022-08-29T13:52:14.957Z,1.10
2022-08-29T13:57:08.080Z,1.75
2022-08-29T14:02:09.905Z,2.45
2022-08-29T14:07:02.917Z,0.85
2022-08-29T14:11:54.616Z,3.53
2022-08-29T14:16:46.362Z,1.52
2022-08-29T14:21:38.122Z,1.65
2022-08-29T14:26:29.866Z,0.95
2022-08-29T14:31:21.585Z,1.08
2022-08-29T14:36:13.277Z,1.30
2022-08-29T14:41:05.202Z,1.73
2022-08-29T14:45:56.893Z,0.80
2022-08-29T14:50:48.672Z,0.68
2022-08-29T14:55:40.464Z,0.63
2022-08-29T15:00:34.074Z,1.20
2022-08-29T15:05:26.232Z,1.13
2022-08-29T15:10:20.253Z,0.82
2022-08-29T15:15:12.936Z,1.17
2022-08-29T15:25:18.221Z,0.70
2022-08-29T15:30:11.171Z,1.70
2022-08-29T15:35:03.020Z,1.25
2022-08-29T15:39:55.053Z,0.80
2022-08-29T15:44:46.727Z,1.17
2022-08-29T15:49:42.997Z,1.88
2022-08-29T15:54:36.082Z,1.15
2022-08-29T15:59:54.227Z,0.93
2022-08-29T16:04:44.843Z,1.23
2022-08-29T16:09:36.506Z,0.63
2022-08-29T16:14:58.089Z,0.30
2022-08-29T16:19:41.804Z,1.10
2022-08-29T16:24:33.752Z,0.50
2022-08-29T16:29:26.842Z,1.10
2022-08-29T16:34:18.772Z,1.30
2022-08-29T16:39:10.973Z,1.17
2022-08-29T16:44:03.662Z,0.60
2022-08-29T16:48:57.196Z,0.50
2022-08-29T16:53:49.452Z,0.57
2022-08-29T16:59:01.693Z,0.50
2022-08-29T17:03:53.423Z,0.98
2022-08-29T17:08:45.067Z,1.48
2022-08-29T17:13:38.803Z,1.38
2022-08-29T17:18:30.584Z,1.05
2022-08-29T17:23:22.581Z,1.67
2022-08-29T17:28:18.003Z,1.88
2022-08-29T17:33:11.996Z,1.38
2022-08-29T17:38:03.743Z,1.02
2022-08-29T17:42:55.909Z,1.95
2022-08-29T17:47:47.519Z,3.30
2022-08-29T17:52:39.418Z,4.75
2022-08-29T17:57:33.222Z,1.00
2022-08-29T18:02:25.322Z,0.70
2022-08-29T18:07:18.140Z,0.60
2022-08-29T18:12:10.190Z,1.00
2022-08-29T18:17:02.018Z,1.90
2022-08-29T18:21:53.971Z,1.58
2022-08-29T18:26:47.099Z,1.98
2022-08-29T18:31:39.847Z,1.30
2022-08-29T18:36:33.383Z,3.17
2022-08-29T18:41:25.429Z,1.17
2022-08-29T18:46:17.051Z,1.08
2022-08-29T18:51:08.674Z,1.10
2022-08-29T18:56:01.217Z,2.40
2022-08-29T19:00:54.429Z,1.50
2022-08-29T19:05:49.927Z,1.98
2022-08-29T19:10:42.782Z,1.10
2022-08-29T19:15:41.275Z,1.33
2022-08-29T19:20:52.781Z,1.15
2022-08-29T19:25:44.513Z,1.40
2022-08-29T19:30:38.221Z,1.42
2022-08-29T19:35:29.874Z,2.35
2022-08-29T19:40:21.829Z,1.65
2022-08-29T19:45:16.376Z,2.63
2022-08-29T19:50:11.835Z,2.13
2022-08-29T19:55:06.205Z,1.35
2022-08-29T19:59:57.832Z,1.92
2022-08-29T20:04:51.181Z,1.90
2022-08-29T20:09:42.799Z,2.25
2022-08-29T20:14:35.033Z,2.95
2022-08-29T20:19:27.037Z,2.17
2022-08-29T20:24:19.286Z,1.10
2022-08-29T20:29:12.138Z,1.38
2022-08-29T20:34:04.274Z,1.77
2022-08-29T20:38:56.019Z,1.35
2022-08-29T20:43:47.673Z,1.00
2022-08-29T20:48:39.421Z,1.40
2022-08-29T20:53:31.995Z,1.77
2022-08-29T20:58:24.198Z,2.40
2022-08-29T21:03:35.601Z,1.30
2022-08-29T21:08:27.893Z,2.38
2022-08-29T21:13:20.077Z,1.00
2022-08-29T21:18:14.402Z,1.20
2022-08-29T21:23:08.284Z,2.13
2022-08-29T21:27:59.998Z,1.95
2022-08-29T21:32:51.767Z,1.05
2022-08-29T21:37:43.422Z,0.80
2022-08-29T21:42:35.680Z,1.67
2022-08-29T21:47:28.480Z,4.22
2022-08-29T21:52:20.205Z,1.10
2022-08-29T21:57:19.432Z,1.80
2022-08-29T22:02:12.350Z,1.20
2022-08-29T22:07:04.303Z,1.77
2022-08-29T22:11:56.510Z,0.75
2022-08-29T22:16:48.169Z,0.95
2022-08-29T22:21:46.008Z,1.08
2022-08-29T22:31:31.909Z,1.40
2022-08-29T22:36:24.723Z,1.92
2022-08-29T22:41:20.768Z,1.38
2022-08-29T22:46:16.321Z,1.45
2022-08-29T22:51:37.491Z,2.20
2022-08-29T22:56:30.452Z,2.03
2022-08-29T23:01:22.133Z,1.73
2022-08-29T23:06:13.777Z,2.60
2022-08-29T23:11:05.657Z,1.00
2022-08-29T23:15:57.339Z,2.28
2022-08-29T23:20:49.017Z,0.90
2022-08-29T23:25:40.801Z,2.15
2022-08-29T23:30:32.701Z,2.08
2022-08-29T23:35:24.446Z,2.45
2022-08-29T23:40:18.524Z,1.73
2022-08-29T23:45:10.868Z,2.42
2022-08-29T23:50:03.879Z,1.73
2022-08-29T23:54:55.562Z,1.48
